This is the latest recevied weather packets stored in our database for station/object N7QNM-13. If no packets are shown the sender has not sent any weather packets the latest 10 day(s).
| Time | Temp. | Humidity | Pressure | Rain* | Wind** | Luminosity | Snow |
|---|---|---|---|---|---|---|---|
| 1778182825 | 23.33° C | 40% | 1014.1 hPa | 0 mm | - | 882 W/m² | - |
| 1778181626 | 23.33° C | 39% | 1014.2 hPa | 0 mm | - | 874 W/m² | - |
| 1778178027 | 22.22° C | 36% | 1014.4 hPa | 0 mm | - | 463 W/m² | - |
| 1778173827 | 20° C | 43% | 1014.8 hPa | 0 mm | - | 688 W/m² | - |
| 1778172648 | 19.44° C | 44% | 1015 hPa | 0 mm | - | 640 W/m² | - |
| 1778172028 | 18.89° C | 44% | 1015.1 hPa | 0 mm | - | 614 W/m² | - |
| 1778169048 | 17.22° C | 49% | 1015.2 hPa | 0 mm | - | 470 W/m² | - |
| 1778167828 | 17.22° C | 49% | 1015.1 hPa | 0 mm | - | 403 W/m² | - |
| 1778163629 | 13.33° C | 69% | 1014.7 hPa | 0 mm | - | 188 W/m² | - |
| 1778162449 | 11.67° C | 79% | 1014.7 hPa | 0 mm | - | 147 W/m² | - |
| 1778158230 | 8.33° C | 83% | 1014.1 hPa | 0 mm | - | 12 W/m² | - |
| 1778157630 | 8.33° C | 83% | 1014.1 hPa | 0 mm | - | 5 W/m² | - |
| 1778155271 | 8.89° C | 81% | 1014 hPa | 0 mm | - | 0 W/m² | - |
| 1778149832 | 11.11° C | 70% | 1013.8 hPa | 0 mm | - | 0 W/m² | - |
| 1778147432 | 13.33° C | 63% | 1013.6 hPa | 0 mm | - | 0 W/m² | - |
| 1778142634 | 16.11° C | 53% | 1013.4 hPa | 0 mm | - | 0 W/m² | - |
| 1778134235 | 19.44° C | 43% | 1012.5 hPa | 0 mm | - | 0 W/m² | - |
| 1778133035 | 20.56° C | 39% | 1012.6 hPa | 0 mm | - | 0 W/m² | - |
| 1778128236 | 22.22° C | 38% | 1012 hPa | 0 mm | - | 0 W/m² | - |
| 1778125238 | 22.22° C | 39% | 1011.6 hPa | 0 mm | - | 0 W/m² | - |
| 1778124057 | 23.33° C | 36% | 1011.5 hPa | 0 mm | - | 1 W/m² | - |
| 1778122837 | 23.33° C | 36% | 1011.5 hPa | 0 mm | - | 7 W/m² | - |
| 1778118638 | 25.56° C | 33% | 1011.2 hPa | 0 mm | - | 40 W/m² | - |
| 1778116838 | 26.11° C | 32% | 1011.2 hPa | 0 mm | - | 65 W/m² | - |
| 1778115638 | 27.22° C | 31% | 1011 hPa | 0 mm | - | 96 W/m² | - |
* Rain latest hour (hover to see other rain measurements)
** Current wind speed in m/s (hover to see current wind gust speed)